Time;durP1;ratioP1;P1;durP2;ratioP2;P2;SDS_P1;SDS_P2;PMS_P1;PMS_P2;Temp;Humidity;BMP_temperature;BMP_pressure;BME280_temperature;BME280_humidity;BME280_pressure;Samples;Min_cycle;Max_cycle;Signal;HPM_P1;HPM_P2
2023/01/23 00:01:24;;;;;;;1.05;0.57;;;17.80;61.10;;;;;;5053696;28;20041;-71
2023/01/23 00:03:51;;;;;;;0.57;0.10;;;17.80;61.00;;;;;;5054001;28;20120;-71
2023/01/23 00:06:18;;;;;;;0.85;0.52;;;17.90;61.00;;;;;;5053834;28;20052;-72
2023/01/23 00:08:46;;;;;;;1.30;0.60;;;17.90;60.90;;;;;;5053981;28;20076;-71
2023/01/23 00:11:16;;;;;;;1.05;0.63;;;18.00;60.90;;;;;;5052588;28;20045;-71
2023/01/23 00:13:43;;;;;;;1.05;0.50;;;18.00;60.80;;;;;;5053526;28;20045;-71
2023/01/23 00:16:13;;;;;;;1.35;0.50;;;18.10;60.60;;;;;;5035434;28;20095;-71
2023/01/23 00:18:40;;;;;;;1.40;0.95;;;18.20;60.50;;;;;;5033403;28;20060;-71
2023/01/23 00:21:09;;;;;;;1.23;0.70;;;18.30;60.40;;;;;;5033097;28;20045;-71
2023/01/23 00:23:37;;;;;;;0.80;0.10;;;18.30;60.30;;;;;;5040533;28;20544;-71
2023/01/23 00:26:05;;;;;;;1.70;0.60;;;18.40;60.20;;;;;;5042687;28;20045;-71
2023/01/23 00:28:33;;;;;;;1.23;0.52;;;18.40;60.10;;;;;;5032292;28;20158;-71
2023/01/23 00:31:04;;;;;;;2.22;0.50;;;18.60;60.10;;;;;;5033188;28;20536;-70
2023/01/23 00:33:31;;;;;;;1.20;0.65;;;18.60;60.00;;;;;;5031800;28;20079;-71
2023/01/23 00:35:58;;;;;;;1.00;0.20;;;18.70;60.50;;;;;;5032955;28;20045;-71
2023/01/23 00:38:25;;;;;;;1.00;0.40;;;18.70;59.80;;;;;;5032984;28;20053;-71
2023/01/23 00:40:53;;;;;;;1.20;0.88;;;18.80;59.70;;;;;;5042035;28;20057;-71
2023/01/23 00:43:20;;;;;;;0.70;0.13;;;18.80;59.60;;;;;;5050886;28;20267;-70
2023/01/23 00:45:48;;;;;;;1.58;0.90;;;18.90;59.70;;;;;;5051474;28;20140;-71
2023/01/23 00:48:15;;;;;;;2.05;0.93;;;18.90;59.50;;;;;;5052923;28;20049;-71
2023/01/23 00:50:42;;;;;;;1.48;0.70;;;19.00;59.50;;;;;;5052924;28;20052;-71
2023/01/23 00:53:09;;;;;;;0.63;0.10;;;19.00;59.50;;;;;;5052077;28;20444;-71
2023/01/23 00:55:36;;;;;;;1.40;0.85;;;19.00;59.40;;;;;;5051528;28;20486;-70
2023/01/23 00:58:03;;;;;;;1.30;0.68;;;19.00;59.40;;;;;;5051053;28;20049;-71
2023/01/23 01:00:30;;;;;;;1.13;0.65;;;19.00;59.40;;;;;;5052602;28;20055;-71
2023/01/23 01:02:59;;;;;;;1.15;0.10;;;18.90;59.40;;;;;;5052633;28;20048;-71
2023/01/23 01:05:26;;;;;;;0.82;0.10;;;18.90;59.40;;;;;;5051137;28;20059;-71
2023/01/23 01:07:53;;;;;;;0.70;0.10;;;18.90;59.50;;;;;;5034620;28;20633;-71
2023/01/23 01:10:20;;;;;;;0.90;0.60;;;18.90;59.60;;;;;;5032758;28;20049;-71
2023/01/23 01:12:47;;;;;;;0.98;0.77;;;18.80;59.60;;;;;;5032191;28;20645;-71
2023/01/23 01:15:14;;;;;;;1.10;0.70;;;18.80;59.80;;;;;;5045511;28;20044;-71
2023/01/23 01:17:41;;;;;;;1.30;0.80;;;18.70;59.80;;;;;;5052066;28;20053;-71
2023/01/23 01:20:11;;;;;;;0.85;0.20;;;18.60;59.90;;;;;;5051832;28;20760;-71
2023/01/23 01:22:38;;;;;;;0.82;0.20;;;18.60;60.00;;;;;;5052206;28;20053;-71
2023/01/23 01:25:06;;;;;;;0.88;0.20;;;18.50;60.10;;;;;;5037710;28;20049;-72
2023/01/23 01:27:33;;;;;;;1.17;0.22;;;18.50;60.20;;;;;;5032302;28;20398;-71
2023/01/23 01:30:00;;;;;;;0.90;0.25;;;18.40;60.20;;;;;;5030367;28;20050;-71
2023/01/23 01:32:26;;;;;;;1.05;0.70;;;18.30;60.20;;;;;;5044810;28;20102;-71
2023/01/23 01:34:53;;;;;;;1.27;0.93;;;18.30;60.40;;;;;;5050261;28;20049;-71
2023/01/23 01:37:24;;;;;;;1.70;1.30;;;18.30;60.40;;;;;;5051869;28;20502;-71
2023/01/23 01:39:50;;;;;;;1.08;0.65;;;18.20;61.00;;;;;;5040115;28;20103;-71
2023/01/23 01:42:17;;;;;;;1.20;0.63;;;18.20;60.50;;;;;;5034123;28;20064;-71
2023/01/23 01:44:54;;;;;;;1.17;0.88;;;18.20;60.60;;;;;;5032644;28;20045;-71
2023/01/23 01:47:21;;;;;;;1.15;0.85;;;18.00;60.60;;;;;;5030378;28;20052;-71
2023/01/23 01:49:50;;;;;;;0.73;0.10;;;18.00;60.60;;;;;;5047601;28;20099;-71
2023/01/23 01:52:19;;;;;;;1.13;0.85;;;18.00;60.70;;;;;;5036239;28;20048;-72
2023/01/23 01:54:51;;;;;;;0.60;0.20;;;17.90;60.70;;;;;;5042480;28;20044;-72
2023/01/23 01:57:23;;;;;;;0.45;0.10;;;17.90;60.80;;;;;;5031738;28;20080;-71
2023/01/23 01:59:55;;;;;;;1.48;0.90;;;17.90;60.90;;;;;;5045027;28;20048;-71
2023/01/23 02:02:26;;;;;;;0.80;0.10;;;17.80;60.90;;;;;;5047263;28;20052;-71
2023/01/23 02:04:59;;;;;;;1.45;0.68;;;17.70;60.90;;;;;;5042721;28;20049;-71
2023/01/23 02:07:33;;;;;;;0.82;0.52;;;17.70;61.00;;;;;;5030557;28;20046;-71
2023/01/23 02:10:04;;;;;;;0.95;0.20;;;17.70;61.10;;;;;;5043473;28;20049;-71
2023/01/23 02:12:33;;;;;;;1.20;0.80;;;17.60;61.10;;;;;;5034304;28;20064;-71
2023/01/23 02:15:01;;;;;;;1.35;1.23;;;17.60;61.10;;;;;;5043587;28;20037;-71
2023/01/23 02:17:28;;;;;;;0.60;0.10;;;17.60;61.10;;;;;;5041130;28;20045;-71
2023/01/23 02:20:03;;;;;;;1.13;0.65;;;17.50;61.10;;;;;;5031767;28;20048;-71
2023/01/23 02:22:42;;;;;;;1.20;1.08;;;17.60;61.10;;;;;;5043066;28;20079;-71
2023/01/23 02:25:17;;;;;;;0.70;0.10;;;17.60;61.70;;;;;;5030107;28;20088;-71
2023/01/23 02:27:45;;;;;;;0.95;0.20;;;17.60;61.70;;;;;;5029933;28;20057;-70
2023/01/23 02:30:14;;;;;;;1.33;0.82;;;17.60;61.00;;;;;;5031626;28;20100;-71
2023/01/23 02:32:41;;;;;;;1.13;0.70;;;17.60;61.00;;;;;;5031340;28;20136;-71
2023/01/23 02:35:13;;;;;;;0.90;0.55;;;17.70;61.00;;;;;;5031259;28;20050;-70
2023/01/23 02:37:45;;;;;;;1.30;1.00;;;17.70;60.90;;;;;;5030412;28;20093;-71
2023/01/23 02:40:12;;;;;;;1.15;0.68;;;17.80;60.80;;;;;;5042667;28;20055;-70
2023/01/23 02:42:41;;;;;;;0.98;0.63;;;17.80;60.70;;;;;;5049391;28;20064;-72
2023/01/23 02:45:10;;;;;;;0.77;0.10;;;17.90;60.70;;;;;;5048298;28;20102;-70
2023/01/23 02:47:37;;;;;;;1.67;1.58;;;17.90;60.60;;;;;;5055060;28;20049;-70
2023/01/23 02:50:05;;;;;;;1.63;0.80;;;18.00;60.50;;;;;;5053479;28;20045;-71
2023/01/23 02:52:33;;;;;;;1.38;0.98;;;18.00;60.40;;;;;;5055289;28;20045;-71
2023/01/23 02:55:00;;;;;;;0.43;0.10;;;18.10;60.30;;;;;;5054792;28;20041;-70
2023/01/23 02:57:27;;;;;;;0.70;0.10;;;18.20;60.30;;;;;;5053976;28;20068;-71
2023/01/23 03:02:39;;;;;;;1.10;0.77;;;18.40;60.10;;;;;;5054711;28;20865;-71
2023/01/23 03:05:07;;;;;;;0.90;0.60;;;18.40;59.90;;;;;;5052824;28;20056;-71
2023/01/23 03:07:34;;;;;;;0.70;0.10;;;18.50;59.90;;;;;;5054739;28;20528;-71
2023/01/23 03:10:01;;;;;;;1.00;0.80;;;18.50;59.70;;;;;;5053463;28;20053;-71
2023/01/23 03:12:28;;;;;;;0.98;0.63;;;18.60;59.60;;;;;;5053080;28;20060;-71
2023/01/23 03:14:56;;;;;;;1.17;0.73;;;18.70;59.60;;;;;;5051177;28;20049;-70
2023/01/23 03:17:23;;;;;;;0.98;0.60;;;18.70;59.50;;;;;;5041695;28;20048;-70
2023/01/23 03:19:52;;;;;;;1.00;0.77;;;18.80;59.40;;;;;;5046329;28;20049;-71
2023/01/23 03:22:18;;;;;;;1.00;0.68;;;18.90;59.40;;;;;;5042904;28;20052;-71
2023/01/23 03:24:45;;;;;;;1.63;1.48;;;18.90;59.40;;;;;;5039175;28;20483;-71
2023/01/23 03:27:12;;;;;;;0.40;0.10;;;18.80;59.20;;;;;;5033521;28;20060;-71
2023/01/23 03:32:24;;;;;;;0.60;0.10;;;18.80;59.30;;;;;;5033269;28;20057;-71
2023/01/23 03:34:53;;;;;;;1.05;0.52;;;18.80;60.00;;;;;;5034478;28;20052;-71
2023/01/23 03:37:20;;;;;;;0.90;0.55;;;18.80;59.40;;;;;;5034098;28;20072;-71
2023/01/23 03:42:33;;;;;;;0.50;0.10;;;18.70;59.50;;;;;;5034044;28;20146;-71
2023/01/23 03:45:00;;;;;;;0.80;0.10;;;18.60;60.30;;;;;;5034063;28;20411;-71
2023/01/23 03:47:27;;;;;;;1.05;0.60;;;18.60;59.70;;;;;;5039494;28;20053;-71
2023/01/23 03:49:56;;;;;;;0.80;0.17;;;18.50;59.80;;;;;;5054237;28;20048;-71
2023/01/23 03:52:23;;;;;;;0.90;0.57;;;18.50;60.10;;;;;;5052786;28;20056;-71
2023/01/23 03:54:50;;;;;;;0.98;0.20;;;18.40;60.00;;;;;;5052822;28;20060;-71
2023/01/23 03:57:17;;;;;;;1.25;0.70;;;18.40;60.10;;;;;;5050165;28;20048;-71
2023/01/23 03:59:44;;;;;;;1.20;0.68;;;18.30;60.10;;;;;;5034191;28;20072;-71
2023/01/23 04:02:11;;;;;;;0.75;0.13;;;18.30;60.10;;;;;;5053670;28;20187;-71
2023/01/23 04:04:38;;;;;;;0.57;0.10;;;18.30;60.20;;;;;;5036409;28;20049;-71
2023/01/23 04:07:07;;;;;;;0.80;0.10;;;18.20;60.20;;;;;;5032350;28;20049;-71
2023/01/23 04:09:34;;;;;;;0.98;0.77;;;18.10;60.30;;;;;;5038994;28;20229;-71
2023/01/23 04:12:01;;;;;;;0.75;0.10;;;18.10;60.40;;;;;;5037859;28;20053;-71
2023/01/23 04:14:34;;;;;;;0.90;0.65;;;18.00;60.40;;;;;;5033071;28;20052;-71
2023/01/23 04:17:01;;;;;;;0.70;0.60;;;18.00;60.50;;;;;;5049468;28;20037;-71
2023/01/23 04:19:28;;;;;;;1.15;0.70;;;17.90;60.50;;;;;;5044680;28;20045;-71
2023/01/23 04:21:55;;;;;;;0.82;0.60;;;17.90;60.50;;;;;;5042995;28;20711;-71
2023/01/23 04:24:23;;;;;;;1.05;0.55;;;17.90;60.60;;;;;;5032942;28;20577;-71
2023/01/23 04:26:50;;;;;;;0.75;0.50;;;17.80;60.60;;;;;;5032028;28;20045;-71
2023/01/23 04:29:17;;;;;;;0.60;0.20;;;17.70;60.70;;;;;;5044816;28;20045;-71
2023/01/23 04:31:44;;;;;;;0.88;0.10;;;17.80;60.80;;;;;;5034602;28;20053;-71
2023/01/23 04:34:11;;;;;;;1.15;0.20;;;17.70;60.80;;;;;;5032957;28;20045;-71
2023/01/23 04:36:38;;;;;;;0.82;0.10;;;17.60;60.80;;;;;;5032802;28;20053;-71
2023/01/23 04:39:05;;;;;;;0.88;0.68;;;17.60;60.90;;;;;;5032405;28;20049;-71
2023/01/23 04:41:34;;;;;;;1.13;0.70;;;17.50;60.90;;;;;;5032420;28;20049;-71
2023/01/23 04:44:18;;;;;;;0.80;0.50;;;17.50;61.00;;;;;;5046889;28;20041;-71
2023/01/23 04:46:46;;;;;;;1.02;0.73;;;17.50;61.00;;;;;;5051002;28;20142;-71
2023/01/23 04:49:13;;;;;;;0.55;0.10;;;17.50;61.00;;;;;;5042066;28;20052;-71
2023/01/23 04:51:40;;;;;;;1.00;0.63;;;17.50;61.60;;;;;;5032138;28;20072;-71
2023/01/23 04:54:07;;;;;;;0.98;0.82;;;17.50;61.00;;;;;;5042973;28;20124;-71
2023/01/23 04:56:35;;;;;;;0.90;0.57;;;17.50;60.90;;;;;;5044161;28;20056;-71
2023/01/23 04:59:02;;;;;;;0.30;0.00;;;17.50;60.90;;;;;;5035352;28;20049;-71
2023/01/23 05:01:29;;;;;;;1.13;0.10;;;17.60;60.90;;;;;;5032317;28;20053;-71
2023/01/23 05:03:56;;;;;;;0.93;0.65;;;17.60;60.90;;;;;;5032001;28;20053;-71
2023/01/23 05:06:23;;;;;;;1.25;0.60;;;17.60;60.80;;;;;;5042364;28;20041;-71
2023/01/23 05:08:50;;;;;;;1.13;0.60;;;17.70;60.80;;;;;;5032540;28;20053;-71
2023/01/23 05:11:17;;;;;;;1.40;1.30;;;17.70;60.70;;;;;;5030789;28;20057;-71
2023/01/23 05:13:45;;;;;;;0.88;0.40;;;17.80;60.60;;;;;;5049410;28;20053;-71
2023/01/23 05:16:12;;;;;;;0.80;0.50;;;17.90;60.60;;;;;;5052496;28;20041;-71
2023/01/23 05:18:39;;;;;;;1.17;0.77;;;17.90;60.40;;;;;;5046615;28;20048;-71
2023/01/23 05:21:06;;;;;;;0.88;0.70;;;18.00;60.40;;;;;;5032564;28;20041;-72
2023/01/23 05:23:34;;;;;;;1.05;0.68;;;18.00;60.30;;;;;;5032366;28;20053;-71
2023/01/23 05:26:00;;;;;;;0.82;0.50;;;18.20;60.20;;;;;;5032062;28;20049;-71
2023/01/23 05:28:27;;;;;;;1.08;0.60;;;18.20;60.10;;;;;;5030821;28;20053;-71
2023/01/23 05:30:56;;;;;;;0.80;0.43;;;18.30;60.00;;;;;;5050526;28;20417;-71
2023/01/23 05:33:23;;;;;;;1.10;0.45;;;18.30;59.90;;;;;;5051025;28;20417;-71
2023/01/23 05:35:49;;;;;;;0.47;0.10;;;18.40;59.80;;;;;;5052173;28;20045;-71
2023/01/23 05:38:16;;;;;;;1.10;0.65;;;18.50;59.80;;;;;;5050803;28;20060;-70
2023/01/23 05:40:43;;;;;;;1.05;0.73;;;18.50;60.30;;;;;;5049810;28;20053;-71
2023/01/23 05:43:13;;;;;;;0.98;0.65;;;18.60;59.50;;;;;;5051847;28;20044;-71
2023/01/23 05:45:40;;;;;;;0.52;0.20;;;18.60;59.40;;;;;;5051928;28;20045;-71
2023/01/23 05:48:09;;;;;;;1.20;0.70;;;18.70;59.40;;;;;;5051043;28;20045;-71
2023/01/23 05:50:36;;;;;;;0.60;0.20;;;18.80;59.30;;;;;;5051987;28;20051;-71
2023/01/23 05:53:03;;;;;;;0.63;0.10;;;18.80;59.30;;;;;;5051554;28;20052;-71
2023/01/23 05:55:30;;;;;;;0.70;0.10;;;18.80;59.20;;;;;;5045783;28;20053;-71
2023/01/23 05:57:57;;;;;;;0.98;0.50;;;18.80;59.10;;;;;;5031540;28;20061;-71
2023/01/23 06:00:24;;;;;;;0.95;0.57;;;18.90;59.20;;;;;;5030317;28;20045;-71
2023/01/23 06:02:51;;;;;;;1.10;0.70;;;18.80;59.20;;;;;;5032388;28;20047;-71
2023/01/23 06:05:19;;;;;;;1.50;0.50;;;18.80;59.20;;;;;;5043829;28;20049;-71
2023/01/23 06:07:46;;;;;;;0.70;0.10;;;18.80;59.30;;;;;;5035552;28;20402;-71
2023/01/23 06:10:13;;;;;;;1.00;0.60;;;18.70;59.30;;;;;;5036405;28;20048;-71
2023/01/23 06:12:40;;;;;;;0.82;0.55;;;18.70;59.40;;;;;;5032595;28;20048;-71
2023/01/23 06:15:08;;;;;;;0.82;0.60;;;18.70;59.50;;;;;;5050020;28;20060;-71
2023/01/23 06:17:35;;;;;;;0.85;0.47;;;18.60;59.50;;;;;;5040030;28;20052;-71
2023/01/23 06:20:02;;;;;;;0.98;0.70;;;18.60;59.60;;;;;;5044397;28;20045;-71
2023/01/23 06:22:30;;;;;;;0.98;0.55;;;18.50;59.70;;;;;;5044913;28;20460;-71
2023/01/23 06:24:57;;;;;;;0.95;0.43;;;18.40;59.70;;;;;;5051199;28;20080;-71
2023/01/23 06:27:24;;;;;;;0.98;0.60;;;18.40;59.80;;;;;;5049315;28;20055;-71
2023/01/23 06:29:51;;;;;;;1.10;0.52;;;18.40;60.00;;;;;;5031234;28;20057;-71
2023/01/23 06:32:18;;;;;;;1.08;0.60;;;18.30;60.00;;;;;;5035273;28;20053;-71
2023/01/23 06:34:45;;;;;;;0.88;0.50;;;18.30;60.00;;;;;;5045956;28;20065;-71
2023/01/23 06:37:12;;;;;;;0.70;0.15;;;18.20;60.10;;;;;;5048993;28;20048;-71
2023/01/23 06:39:40;;;;;;;0.90;0.68;;;18.20;60.10;;;;;;5031394;28;20056;-71
2023/01/23 06:42:09;;;;;;;1.02;0.63;;;18.10;60.20;;;;;;5031470;28;20045;-71
2023/01/23 06:44:36;;;;;;;0.88;0.80;;;18.10;60.20;;;;;;5031141;28;20049;-70
2023/01/23 06:47:03;;;;;;;0.32;0.10;;;18.10;60.30;;;;;;5045994;28;20430;-70
2023/01/23 06:49:30;;;;;;;0.88;0.60;;;18.00;60.30;;;;;;5050358;28;20052;-70
2023/01/23 06:51:57;;;;;;;0.88;0.75;;;17.90;60.30;;;;;;5049070;28;20059;-71
2023/01/23 06:54:24;;;;;;;0.90;0.65;;;17.90;60.40;;;;;;5048514;28;20053;-71
2023/01/23 06:56:52;;;;;;;0.77;0.10;;;17.90;60.50;;;;;;5051002;28;20138;-71
2023/01/23 06:59:19;;;;;;;0.90;0.63;;;17.80;60.50;;;;;;5050958;28;20072;-70
2023/01/23 07:01:46;;;;;;;1.20;0.77;;;17.70;60.50;;;;;;5051255;28;20053;-71
2023/01/23 07:04:13;;;;;;;1.10;0.82;;;17.70;60.60;;;;;;5051142;28;20056;-66
2023/01/23 07:06:40;;;;;;;0.85;0.50;;;17.70;61.20;;;;;;5051436;28;20049;-70
2023/01/23 07:09:07;;;;;;;0.90;0.60;;;17.60;60.70;;;;;;5049938;28;20095;-70
2023/01/23 07:11:35;;;;;;;1.25;0.60;;;17.60;60.80;;;;;;5050725;28;20502;-70
2023/01/23 07:14:04;;;;;;;0.90;0.63;;;17.60;60.90;;;;;;5048008;28;20059;-70
2023/01/23 07:16:31;;;;;;;0.80;0.68;;;17.50;60.90;;;;;;5040784;28;20532;-81
2023/01/23 07:18:58;;;;;;;1.00;0.10;;;17.50;60.90;;;;;;5049461;28;20135;-70
2023/01/23 07:21:25;;;;;;;0.80;0.63;;;17.50;61.00;;;;;;5042309;28;20118;-70
2023/01/23 07:23:52;;;;;;;1.45;0.80;;;17.50;61.10;;;;;;5035526;28;20096;-70
2023/01/23 07:26:19;;;;;;;2.25;0.82;;;17.50;61.10;;;;;;5040153;28;20052;-70
2023/01/23 07:28:46;;;;;;;0.82;0.68;;;17.50;61.10;;;;;;5040629;28;20053;-70
2023/01/23 07:31:15;;;;;;;1.67;0.10;;;17.60;61.10;;;;;;5045355;28;20057;-69
2023/01/23 07:33:42;;;;;;;1.48;0.60;;;17.60;61.10;;;;;;5049505;28;20057;-69
2023/01/23 07:36:12;;;;;;;0.63;0.10;;;17.60;61.10;;;;;;5046332;28;20049;-71
2023/01/23 07:38:39;;;;;;;1.08;0.50;;;17.60;61.00;;;;;;5048366;28;20128;-69
2023/01/23 07:41:06;;;;;;;0.82;0.52;;;17.70;61.00;;;;;;5054200;28;20084;-69
2023/01/23 07:43:33;;;;;;;0.88;0.45;;;17.70;60.90;;;;;;5053047;28;20049;-70
2023/01/23 07:46:01;;;;;;;0.80;0.30;;;17.80;60.80;;;;;;5054001;28;20041;-69
2023/01/23 07:48:29;;;;;;;0.80;0.40;;;17.80;60.80;;;;;;5046982;28;20049;-70
2023/01/23 07:50:56;;;;;;;1.40;0.50;;;17.90;60.70;;;;;;5034634;28;20042;-69
2023/01/23 07:53:23;;;;;;;1.23;0.60;;;17.90;60.60;;;;;;5034201;28;20049;-69
2023/01/23 07:55:50;;;;;;;0.90;0.75;;;17.90;60.60;;;;;;5032252;28;20049;-69
2023/01/23 07:58:17;;;;;;;0.55;0.00;;;17.90;60.50;;;;;;5038599;28;20071;-70
2023/01/23 08:00:44;;;;;;;0.52;0.20;;;17.90;60.50;;;;;;5050107;28;20049;-70
2023/01/23 08:03:11;;;;;;;1.38;1.25;;;18.00;60.60;;;;;;5033477;28;20043;-70
2023/01/23 08:05:39;;;;;;;0.40;0.20;;;18.00;60.50;;;;;;5033912;28;20057;-69
2023/01/23 08:08:07;;;;;;;1.05;0.70;;;18.00;60.40;;;;;;5033577;28;20045;-69
2023/01/23 08:10:34;;;;;;;1.73;0.73;;;18.10;60.40;;;;;;5033491;28;20041;-69
2023/01/23 08:13:01;;;;;;;1.13;0.10;;;18.10;60.30;;;;;;5033346;28;20068;-69
2023/01/23 08:15:29;;;;;;;1.02;0.60;;;18.20;60.20;;;;;;5031973;28;20061;-69
2023/01/23 08:17:56;;;;;;;0.93;0.50;;;18.30;60.10;;;;;;5035943;28;20044;-70
2023/01/23 08:20:23;;;;;;;1.63;0.50;;;18.30;60.00;;;;;;5053303;28;20052;-69
2023/01/23 08:22:51;;;;;;;0.88;0.10;;;18.40;60.00;;;;;;5053535;28;20410;-69
2023/01/23 08:25:18;;;;;;;1.42;0.80;;;18.50;59.90;;;;;;5053684;28;20664;-69
2023/01/23 08:27:45;;;;;;;1.63;0.63;;;18.60;59.70;;;;;;5051789;28;20045;-70
2023/01/23 08:30:13;;;;;;;0.80;0.40;;;18.60;59.60;;;;;;5045712;28;20049;-69
2023/01/23 08:32:40;;;;;;;1.20;0.68;;;18.70;59.50;;;;;;5043170;28;20049;-69
2023/01/23 08:35:07;;;;;;;0.77;0.43;;;18.80;59.40;;;;;;5046409;28;20478;-69
2023/01/23 08:37:35;;;;;;;1.15;0.60;;;18.80;59.30;;;;;;5043854;28;20076;-69
2023/01/23 08:40:04;;;;;;;0.90;0.50;;;18.90;59.30;;;;;;5033107;28;20048;-70
2023/01/23 08:42:31;;;;;;;0.90;0.40;;;18.90;59.30;;;;;;5038401;28;20046;-70
2023/01/23 08:44:58;;;;;;;0.40;0.05;;;18.90;59.30;;;;;;5042830;28;20057;-70
2023/01/23 08:47:26;;;;;;;0.80;0.40;;;18.80;59.30;;;;;;5042648;28;20052;-70
2023/01/23 08:49:53;;;;;;;0.77;0.52;;;18.80;59.40;;;;;;5036428;28;20041;-70
2023/01/23 08:52:19;;;;;;;0.80;0.60;;;18.80;59.40;;;;;;5046878;28;20155;-69
2023/01/23 08:54:46;;;;;;;0.77;0.47;;;18.70;59.50;;;;;;5049537;28;20084;-69
2023/01/23 08:57:15;;;;;;;0.98;0.60;;;18.70;59.50;;;;;;5042391;28;20060;-69
2023/01/23 08:59:43;;;;;;;1.73;0.70;;;18.70;59.60;;;;;;5032215;28;20057;-69
2023/01/23 09:02:12;;;;;;;0.88;0.50;;;18.60;59.70;;;;;;5038810;28;20057;-69
2023/01/23 09:04:39;;;;;;;0.40;0.03;;;18.60;59.80;;;;;;5030933;28;20176;-69
2023/01/23 09:07:06;;;;;;;1.05;0.10;;;18.50;59.80;;;;;;5042729;28;20436;-69
2023/01/23 09:09:33;;;;;;;0.55;0.08;;;18.50;59.90;;;;;;5052690;28;20053;-69
2023/01/23 09:12:00;;;;;;;0.88;0.57;;;18.40;59.90;;;;;;5052552;28;20041;-69
2023/01/23 09:14:28;;;;;;;0.95;0.75;;;18.40;60.00;;;;;;5051000;28;20056;-70
2023/01/23 09:16:55;;;;;;;1.10;0.75;;;18.40;60.70;;;;;;5034420;28;20054;-69
2023/01/23 09:19:22;;;;;;;0.90;0.52;;;18.30;60.10;;;;;;5032506;28;20045;-69
2023/01/23 09:21:49;;;;;;;0.73;0.73;;;18.30;60.20;;;;;;5044125;28;20460;-69
2023/01/23 09:24:16;;;;;;;0.88;0.68;;;18.20;60.20;;;;;;5046465;28;20073;-69
2023/01/23 09:26:43;;;;;;;1.48;0.10;;;18.10;60.20;;;;;;5036378;28;20042;-69
2023/01/23 09:29:10;;;;;;;1.92;0.50;;;18.10;60.30;;;;;;5039082;28;20049;-69
2023/01/23 09:31:39;;;;;;;0.95;0.88;;;18.10;60.30;;;;;;5039303;28;20057;-69
2023/01/23 09:34:06;;;;;;;1.25;0.50;;;18.10;60.40;;;;;;5041969;28;20049;-70
2023/01/23 09:36:33;;;;;;;0.77;0.10;;;18.00;60.40;;;;;;5037205;28;20055;-69
2023/01/23 09:39:02;;;;;;;1.20;1.08;;;18.00;60.50;;;;;;5050059;28;20045;-69
2023/01/23 09:41:30;;;;;;;0.70;0.10;;;17.90;60.50;;;;;;5045053;28;20123;-69
2023/01/23 09:44:00;;;;;;;1.00;0.52;;;17.90;60.60;;;;;;5049003;28;20498;-69
2023/01/23 09:46:32;;;;;;;1.13;0.65;;;17.80;60.60;;;;;;5043130;28;20060;-69
2023/01/23 09:49:06;;;;;;;0.90;0.52;;;17.80;60.70;;;;;;5044396;28;20056;-69
2023/01/23 09:51:47;;;;;;;0.90;0.55;;;17.80;60.70;;;;;;5044226;28;20046;-70
2023/01/23 09:54:27;;;;;;;1.13;0.68;;;17.70;60.70;;;;;;5033433;28;20509;-69
2023/01/23 09:56:55;;;;;;;0.90;0.50;;;17.70;60.80;;;;;;5040929;28;20088;-69
2023/01/23 09:59:29;;;;;;;0.82;0.57;;;17.70;60.80;;;;;;5032999;28;20053;-69
2023/01/23 10:01:56;;;;;;;0.90;0.40;;;17.60;60.90;;;;;;5037281;28;20037;-69
2023/01/23 10:04:25;;;;;;;1.00;0.63;;;17.60;60.90;;;;;;5045933;28;20053;-69
2023/01/23 10:07:05;;;;;;;0.77;0.50;;;17.60;60.90;;;;;;5035777;28;20045;-69
2023/01/23 10:09:47;;;;;;;1.08;0.90;;;17.50;60.90;;;;;;5031001;28;20046;-69
2023/01/23 10:12:24;;;;;;;0.88;0.47;;;17.50;61.00;;;;;;5032042;28;20056;-69
2023/01/23 10:15:05;;;;;;;1.02;0.73;;;17.50;61.00;;;;;;5037465;28;20057;-69
2023/01/23 10:17:41;;;;;;;0.70;0.50;;;17.50;61.00;;;;;;5030094;28;20049;-69
2023/01/23 10:20:48;;;;;;;1.23;0.68;;;17.50;61.00;;;;;;5041282;28;20468;-69
2023/01/23 10:23:39;;;;;;;0.85;0.60;;;17.50;60.90;;;;;;4984808;28;20058;-69
2023/01/23 10:26:18;;;;;;;0.82;0.40;;;17.60;60.90;;;;;;5036445;28;20061;-69
2023/01/23 10:28:47;;;;;;;1.63;0.80;;;17.60;60.80;;;;;;5037341;28;20054;-69
2023/01/23 10:31:24;;;;;;;1.10;0.80;;;17.60;60.70;;;;;;5047585;28;20511;-69
2023/01/23 10:33:58;;;;;;;0.95;0.47;;;17.70;61.30;;;;;;5043873;28;20042;-69
2023/01/23 10:36:31;;;;;;;0.77;0.20;;;17.80;60.60;;;;;;5039483;28;20537;-69
2023/01/23 10:39:03;;;;;;;5.55;0.70;;;17.90;60.60;;;;;;5030514;28;20057;-70
2023/01/23 10:41:30;;;;;;;0.85;0.40;;;17.90;60.50;;;;;;5031136;28;20056;-70
2023/01/23 10:43:57;;;;;;;0.90;0.50;;;17.90;60.30;;;;;;5033199;28;20052;-70
2023/01/23 10:46:30;;;;;;;1.08;0.80;;;18.00;60.30;;;;;;5048970;28;20135;-70
2023/01/23 10:48:59;;;;;;;1.02;0.40;;;18.20;60.30;;;;;;5048303;28;20051;-70
2023/01/23 10:51:34;;;;;;;0.80;0.28;;;18.20;60.10;;;;;;5047631;28;20509;-70
2023/01/23 10:54:06;;;;;;;1.83;0.52;;;18.30;60.00;;;;;;5048490;28;20051;-70
2023/01/23 10:56:36;;;;;;;1.83;0.55;;;18.40;59.90;;;;;;5045449;28;20075;-69
2023/01/23 10:59:05;;;;;;;0.85;0.47;;;18.40;59.70;;;;;;5031827;28;20081;-71
2023/01/23 11:01:33;;;;;;;1.00;0.60;;;18.50;59.70;;;;;;5031806;28;20761;-73
2023/01/23 11:04:10;;;;;;;1.00;0.68;;;18.60;59.60;;;;;;5039718;28;20099;-71
2023/01/23 11:06:38;;;;;;;2.00;0.47;;;18.70;59.50;;;;;;5032395;28;20057;-77
2023/01/23 11:09:19;;;;;;;1.20;0.73;;;18.80;59.40;;;;;;5048461;28;20049;-73
2023/01/23 11:12:03;;;;;;;0.30;0.03;;;18.90;59.30;;;;;;5051248;28;20049;-74
2023/01/23 11:14:30;;;;;;;0.70;0.10;;;19.00;59.30;;;;;;5054050;28;20040;-76
2023/01/23 11:17:03;;;;;;;1.52;0.60;;;19.00;59.30;;;;;;5043927;28;20058;-76
2023/01/23 11:19:32;;;;;;;0.82;0.10;;;19.10;59.60;;;;;;5042118;28;20528;-70
2023/01/23 11:22:01;;;;;;;;;;;19.10;59.70;;;;;;5036056;28;20073;-68
2023/01/23 11:24:33;;;;;;;2.17;0.77;;;19.20;59.70;;;;;;5033789;28;19921;-68
2023/01/23 11:27:01;;;;;;;0.85;0.68;;;19.20;59.70;;;;;;5043992;28;20060;-71
2023/01/23 11:29:30;;;;;;;0.60;0.10;;;19.20;59.60;;;;;;5034996;28;20057;-69
2023/01/23 11:32:00;;;;;;;1.40;0.17;;;19.10;59.50;;;;;;5033406;28;20462;-69
2023/01/23 11:34:33;;;;;;;1.23;0.52;;;19.10;59.70;;;;;;5037126;28;20053;-70
2023/01/23 11:37:10;;;;;;;0.73;0.10;;;19.00;59.70;;;;;;5044363;28;20050;-70
2023/01/23 11:39:48;;;;;;;2.25;0.40;;;19.00;59.90;;;;;;5038731;28;20451;-70
2023/01/23 11:42:18;;;;;;;0.63;0.10;;;18.90;60.00;;;;;;5037243;28;20406;-71
2023/01/23 11:44:46;;;;;;;2.03;1.15;;;18.80;60.10;;;;;;5042188;28;20441;-70
2023/01/23 11:47:35;;;;;;;1.70;1.35;;;18.80;60.20;;;;;;5033071;28;20611;-70
2023/01/23 11:50:20;;;;;;;1.98;0.73;;;18.70;60.30;;;;;;5040703;28;20044;-70
2023/01/23 11:52:59;;;;;;;0.47;0.20;;;18.70;60.40;;;;;;5040330;28;20451;-69
2023/01/23 11:56:05;;;;;;;7.03;1.02;;;18.60;60.50;;;;;;5032745;28;20034;-70
2023/01/23 11:59:15;;;;;;;1.55;0.47;;;18.60;60.60;;;;;;5036455;28;20099;-70
2023/01/23 12:01:55;;;;;;;0.68;0.10;;;18.50;60.70;;;;;;5045595;28;20049;-71
2023/01/23 12:04:54;;;;;;;1.52;0.82;;;18.50;60.80;;;;;;5035792;28;20049;-70
2023/01/23 12:07:22;;;;;;;1.95;0.82;;;18.50;60.90;;;;;;5037331;28;20060;-70
2023/01/23 12:10:03;;;;;;;3.42;0.35;;;18.40;61.00;;;;;;5033985;28;20049;-70
2023/01/23 12:12:49;;;;;;;1.85;0.52;;;18.30;61.10;;;;;;5032475;28;20045;-70
2023/01/23 12:15:31;;;;;;;1.25;0.70;;;18.30;61.20;;;;;;5031170;28;20141;-70
2023/01/23 12:18:07;;;;;;;1.10;0.50;;;18.30;61.30;;;;;;5038251;28;20553;-69
2023/01/23 12:20:45;;;;;;;2.95;0.50;;;18.20;61.30;;;;;;5042427;28;20045;-70
2023/01/23 12:23:26;;;;;;;1.42;0.75;;;18.20;61.40;;;;;;5031394;28;20060;-69
2023/01/23 12:26:03;;;;;;;3.03;0.15;;;18.20;61.50;;;;;;5044333;28;20102;-70
2023/01/23 12:28:49;;;;;;;1.13;0.68;;;18.10;61.50;;;;;;5038430;28;20049;-71
2023/01/23 12:31:29;;;;;;;1.58;0.25;;;18.10;61.60;;;;;;5036830;28;20049;-70
2023/01/23 12:34:14;;;;;;;1.83;0.88;;;18.10;61.70;;;;;;5040655;28;20045;-70
2023/01/23 12:36:55;;;;;;;1.15;0.52;;;18.00;61.70;;;;;;5045209;28;20045;-70
2023/01/23 12:39:41;;;;;;;1.27;0.73;;;18.00;61.70;;;;;;5037953;28;20068;-71
2023/01/23 12:42:15;;;;;;;1.70;0.47;;;18.00;61.80;;;;;;5040289;28;20049;-71
2023/01/23 12:44:51;;;;;;;1.10;0.55;;;17.90;61.80;;;;;;5031519;28;20528;-70
2023/01/23 12:47:23;;;;;;;1.17;0.10;;;17.90;61.80;;;;;;5031496;28;20084;-71
2023/01/23 12:49:56;;;;;;;0.52;0.10;;;17.80;61.80;;;;;;5035429;28;20637;-71
2023/01/23 12:52:26;;;;;;;1.92;0.70;;;17.80;61.90;;;;;;5031534;28;20053;-70
2023/01/23 12:55:02;;;;;;;1.27;0.40;;;17.80;61.90;;;;;;5035184;28;20049;-70
2023/01/23 13:00:25;;;;;;;0.50;0.10;;;17.70;61.90;;;;;;5034842;28;20403;-70
2023/01/23 13:03:06;;;;;;;1.20;0.47;;;17.70;62.00;;;;;;5036661;28;20061;-70
2023/01/23 13:05:42;;;;;;;1.05;0.60;;;17.70;62.60;;;;;;5036638;28;20037;-70
2023/01/23 13:08:19;;;;;;;1.58;0.70;;;17.70;62.00;;;;;;5040616;28;20050;-70
2023/01/23 13:13:50;;;;;;;0.40;0.10;;;17.60;62.00;;;;;;5032219;28;20042;-70
2023/01/23 13:16:18;;;;;;;2.13;0.90;;;17.60;62.00;;;;;;5036504;28;20052;-70